Time;durP1;ratioP1;P1;durP2;ratioP2;P2;SDS_P1;SDS_P2;PMS_P1;PMS_P2;Temp;Humidity;BMP_temperature;BMP_pressure;BME280_temperature;BME280_humidity;BME280_pressure;Samples;Min_cycle;Max_cycle;Signal;HPM_P1;HPM_P2
2021/10/15 00:00:58;;;;;;;4.35;3.70;;;;;;;8.18;72.94;96908.14;1796666;77;21111;-82
2021/10/15 00:03:24;;;;;;;4.70;3.58;;;;;;;8.17;72.89;96916.88;1795060;77;21069;-81
2021/10/15 00:05:50;;;;;;;3.77;3.42;;;;;;;8.18;72.93;96908.14;1812952;77;21071;-82
2021/10/15 00:08:16;;;;;;;4.58;3.42;;;;;;;8.21;73.00;96914.78;1797782;77;21059;-81
2021/10/15 00:10:41;;;;;;;3.50;3.15;;;;;;;8.21;73.04;96911.72;1777971;77;21093;-81
2021/10/15 00:13:07;;;;;;;3.50;3.20;;;;;;;8.24;73.21;96920.46;1767450;77;21189;-83
2021/10/15 00:15:33;;;;;;;4.03;3.35;;;;;;;8.26;73.39;96906.06;1789110;77;21056;-82
2021/10/15 00:17:59;;;;;;;4.65;3.42;;;;;;;8.26;73.50;96910.76;1821793;77;20985;-82
2021/10/15 00:20:25;;;;;;;4.45;3.47;;;;;;;8.28;73.61;96910.12;1801759;77;21131;-81
2021/10/15 00:22:51;;;;;;;3.05;2.77;;;;;;;8.32;73.47;96906.77;1806827;77;21114;-82
2021/10/15 00:25:17;;;;;;;5.55;3.92;;;;;;;8.35;73.35;96906.48;1787175;77;21098;-82
2021/10/15 00:27:43;;;;;;;4.78;3.75;;;;;;;8.41;73.41;96903.26;1792246;77;21512;-82
2021/10/15 00:30:09;;;;;;;5.78;4.20;;;;;;;8.42;73.45;96906.98;1805414;77;21122;-82
2021/10/15 00:32:37;;;;;;;6.12;4.15;;;;;;;8.44;73.35;96901.65;1822767;77;21468;-82
2021/10/15 00:35:03;;;;;;;4.83;3.30;;;;;;;8.46;73.87;96899.74;1817619;77;21217;-82
2021/10/15 00:37:29;;;;;;;7.72;5.33;;;;;;;8.47;73.74;96894.89;1811557;77;21508;-81
2021/10/15 00:39:54;;;;;;;6.62;4.30;;;;;;;8.49;73.69;96896.84;1764992;78;21149;-82
2021/10/15 00:42:20;;;;;;;11.12;7.95;;;;;;;8.51;73.79;96895.38;1793600;77;21092;-82
2021/10/15 00:44:46;;;;;;;4.95;3.65;;;;;;;8.55;73.72;96883.73;1799000;77;21086;-82
2021/10/15 00:47:12;;;;;;;4.62;3.40;;;;;;;8.57;73.98;96875.31;1791750;77;21045;-82
2021/10/15 00:49:38;;;;;;;5.00;3.70;;;;;;;8.58;74.24;96882.93;1789557;76;21104;-82
2021/10/15 00:52:06;;;;;;;3.70;2.90;;;;;;;8.59;74.14;96883.73;1811331;77;21165;-82
2021/10/15 00:54:31;;;;;;;5.37;3.52;;;;;;;8.60;73.96;96877.59;1786283;78;21047;-82
2021/10/15 00:56:58;;;;;;;16.62;9.55;;;;;;;8.62;74.10;96879.53;1798993;76;21082;-82
2021/10/15 00:59:23;;;;;;;38.50;17.07;;;;;;;8.65;74.05;96876.17;1797339;76;21038;-82
2021/10/15 01:01:49;;;;;;;13.13;7.70;;;;;;;8.69;74.12;96884.43;1784007;77;21151;-82
2021/10/15 01:04:15;;;;;;;6.92;4.28;;;;;;;8.70;73.92;96880.39;1736790;77;22100;-82
2021/10/15 01:06:41;;;;;;;15.13;9.70;;;;;;;8.71;73.93;96876.02;1724941;79;21015;-82
2021/10/15 01:09:07;;;;;;;13.95;9.35;;;;;;;8.70;74.06;96871.80;1752236;79;21484;-82
2021/10/15 01:11:33;;;;;;;32.85;16.97;;;;;;;8.71;74.12;96869.53;1739285;80;21068;-82
2021/10/15 01:13:59;;;;;;;19.60;16.02;;;;;;;8.73;74.18;96867.59;1706468;81;21096;-82
2021/10/15 01:16:28;;;;;;;8.08;5.35;;;;;;;8.78;74.01;96865.81;1767554;79;21530;-82
2021/10/15 01:19:00;;;;;;;17.02;12.60;;;;;;;8.81;74.12;96866.34;1713266;81;21182;-82
2021/10/15 01:21:26;;;;;;;9.55;5.90;;;;;;;8.85;74.23;96867.63;1751050;78;21458;-82
2021/10/15 01:23:52;;;;;;;22.75;14.68;;;;;;;8.86;74.21;96864.55;1719347;81;21078;-82
2021/10/15 01:26:17;;;;;;;20.45;15.32;;;;;;;8.86;74.30;96858.08;1751060;78;21071;-82
2021/10/15 01:28:43;;;;;;;5.60;4.12;;;;;;;8.85;74.39;96858.56;1749178;78;21036;-82
2021/10/15 01:31:11;;;;;;;5.35;3.92;;;;;;;8.86;74.33;96857.59;1756700;78;21457;-82
2021/10/15 01:33:36;;;;;;;5.58;3.12;;;;;;;8.84;74.44;96849.17;1803608;76;21183;-82
2021/10/15 01:36:02;;;;;;;3.85;3.10;;;;;;;8.90;74.26;96849.01;1759600;78;21222;-82
2021/10/15 01:38:29;;;;;;;2.95;2.67;;;;;;;8.91;74.27;96843.66;1781097;78;21105;-82
2021/10/15 01:40:55;;;;;;;3.95;3.10;;;;;;;8.93;74.31;96837.83;1776254;79;21068;-82
2021/10/15 01:43:29;;;;;;;3.75;2.10;;;;;;;8.92;74.34;96836.70;1769228;78;21456;-82
2021/10/15 01:45:55;;;;;;;2.62;2.37;;;;;;;8.93;74.27;96839.13;1785309;78;21054;-82
2021/10/15 01:48:21;;;;;;;2.87;2.20;;;;;;;8.92;74.41;96833.62;1765547;79;21059;-82
2021/10/15 01:50:46;;;;;;;3.12;2.12;;;;;;;8.92;74.26;96834.91;1763838;79;21109;-82
2021/10/15 01:53:13;;;;;;;2.55;2.30;;;;;;;8.93;74.24;96832.64;1762370;79;21230;-82
2021/10/15 01:55:39;;;;;;;2.45;2.12;;;;;;;8.94;74.26;96834.75;1793643;78;21085;-82
2021/10/15 01:58:04;;;;;;;2.25;1.90;;;;;;;8.96;74.42;96832.34;1750648;78;21225;-82
2021/10/15 02:00:31;;;;;;;2.42;1.72;;;;;;;8.96;74.37;96833.64;1782574;79;21122;-82
2021/10/15 02:02:56;;;;;;;4.58;4.03;;;;;;;8.95;74.37;96837.70;1807622;77;21120;-82
2021/10/15 02:05:22;;;;;;;3.20;2.47;;;;;;;8.92;74.33;96835.40;1779329;77;20993;-82
2021/10/15 02:07:48;;;;;;;3.98;3.10;;;;;;;8.92;74.50;96834.91;1718539;80;21541;-82
2021/10/15 02:10:15;;;;;;;2.98;2.30;;;;;;;8.93;74.34;96835.23;1747150;79;21084;-82
2021/10/15 02:12:41;;;;;;;3.55;2.65;;;;;;;8.94;74.29;96830.37;1771485;79;21142;-82
2021/10/15 02:15:08;;;;;;;2.62;2.08;;;;;;;8.96;74.50;96832.34;1805346;77;21345;-82
2021/10/15 02:17:34;;;;;;;4.70;2.35;;;;;;;8.96;74.31;96831.05;1769489;77;21116;-82
2021/10/15 02:19:59;;;;;;;5.17;4.67;;;;;;;8.92;74.27;96827.14;1779997;77;21070;-82
2021/10/15 02:22:25;;;;;;;11.83;9.90;;;;;;;8.90;74.71;96828.27;1795339;77;21637;-82
2021/10/15 02:24:51;;;;;;;7.72;5.00;;;;;;;8.87;74.46;96830.70;1782611;78;21527;-82
2021/10/15 02:27:17;;;;;;;7.00;5.22;;;;;;;8.76;74.43;96811.56;1802781;77;21153;-82
2021/10/15 02:29:44;;;;;;;5.15;3.08;;;;;;;8.84;74.40;96827.14;1796582;78;21195;-82
2021/10/15 02:32:10;;;;;;;3.60;2.80;;;;;;;8.83;74.53;96822.93;1802907;77;21551;-82
2021/10/15 02:34:36;;;;;;;5.53;4.35;;;;;;;8.82;74.69;96818.72;1796488;77;21464;-82
2021/10/15 02:37:01;;;;;;;3.12;2.50;;;;;;;8.80;74.77;96818.56;1761583;79;21040;-82
2021/10/15 02:39:27;;;;;;;3.72;2.30;;;;;;;8.78;74.67;96814.00;1767273;78;21124;-82
2021/10/15 02:41:53;;;;;;;3.12;2.22;;;;;;;8.78;74.77;96815.29;1761745;80;21126;-82
2021/10/15 02:44:19;;;;;;;3.70;2.60;;;;;;;8.77;74.61;96810.59;1750558;78;21444;-82
2021/10/15 02:46:44;;;;;;;3.30;3.00;;;;;;;8.76;74.51;96811.56;1781423;78;21448;-82
2021/10/15 02:49:10;;;;;;;3.55;2.67;;;;;;;8.75;74.50;96810.44;1763820;77;21090;-82
2021/10/15 02:51:36;;;;;;;2.65;2.27;;;;;;;8.72;74.68;96804.61;1762996;78;21127;-82
2021/10/15 02:54:03;;;;;;;2.95;2.52;;;;;;;8.70;74.77;96812.22;1733824;80;21138;-81
2021/10/15 02:56:29;;;;;;;2.65;2.20;;;;;;;8.66;74.72;96817.40;1764798;79;21142;-82
2021/10/15 02:58:55;;;;;;;3.05;2.30;;;;;;;8.64;74.80;96812.86;1745060;79;21169;-82
2021/10/15 03:01:21;;;;;;;2.42;2.22;;;;;;;8.63;74.89;96814.64;1729873;81;22778;-82
2021/10/15 03:03:48;;;;;;;2.52;2.30;;;;;;;8.63;74.97;96806.87;1758230;78;21481;-82
2021/10/15 03:06:15;;;;;;;2.70;2.50;;;;;;;8.64;74.75;96803.80;1770383;79;21186;-82
2021/10/15 03:08:41;;;;;;;3.00;2.45;;;;;;;8.63;74.96;96805.58;1765362;79;21103;-82
2021/10/15 03:11:07;;;;;;;2.40;1.98;;;;;;;8.62;75.06;96808.30;1754375;78;21072;-82
2021/10/15 03:13:33;;;;;;;2.90;2.70;;;;;;;8.60;75.00;96802.47;1732585;80;21110;-82
2021/10/15 03:15:58;;;;;;;3.52;2.42;;;;;;;8.55;74.96;96810.73;1728272;80;21081;-82
2021/10/15 03:18:24;;;;;;;2.58;2.22;;;;;;;8.54;74.96;96808.30;1767529;80;21578;-82
2021/10/15 03:20:50;;;;;;;2.85;2.52;;;;;;;8.54;75.07;96805.70;1752518;80;21157;-82
2021/10/15 03:23:16;;;;;;;3.33;2.40;;;;;;;8.52;75.06;96801.17;1765983;76;21539;-82
2021/10/15 03:25:41;;;;;;;3.70;2.80;;;;;;;8.49;75.12;96801.02;1768864;76;21048;-82
2021/10/15 03:28:07;;;;;;;3.83;2.58;;;;;;;8.44;75.07;96805.83;1743859;80;21146;-82
2021/10/15 03:30:33;;;;;;;2.62;2.42;;;;;;;8.38;75.15;96805.98;1738007;81;21266;-82
2021/10/15 03:32:59;;;;;;;3.20;2.27;;;;;;;8.36;75.28;96794.17;1734567;80;21185;-82
2021/10/15 03:35:24;;;;;;;2.77;2.58;;;;;;;8.35;75.47;96797.73;1759881;79;21201;-82
2021/10/15 03:37:50;;;;;;;2.75;2.45;;;;;;;8.35;75.32;96795.95;1736104;81;21061;-82
2021/10/15 03:40:16;;;;;;;2.30;1.92;;;;;;;8.38;75.63;96794.33;1719828;79;21239;-82
2021/10/15 03:42:42;;;;;;;4.08;2.87;;;;;;;8.40;75.66;96796.28;1747863;79;21282;-82
2021/10/15 03:45:09;;;;;;;3.55;2.95;;;;;;;8.41;75.70;96803.56;1744355;79;21128;-82
2021/10/15 03:47:36;;;;;;;3.12;2.30;;;;;;;8.41;75.73;96800.97;1722291;80;21453;-81
2021/10/15 03:50:04;;;;;;;4.55;3.10;;;;;;;8.41;75.73;96800.48;1750338;80;21087;-81
2021/10/15 03:52:29;;;;;;;3.17;2.55;;;;;;;8.42;75.85;96798.70;1742406;80;21069;-82
2021/10/15 03:54:57;;;;;;;2.75;2.47;;;;;;;8.42;75.79;96800.81;1760606;80;21487;-82
2021/10/15 03:57:23;;;;;;;3.80;2.80;;;;;;;8.45;75.74;96798.39;1770406;79;21138;-82
2021/10/15 03:59:48;;;;;;;3.15;2.27;;;;;;;8.50;75.80;96795.34;1745872;79;21118;-82
2021/10/15 04:02:14;;;;;;;3.20;2.83;;;;;;;8.52;76.21;96792.11;1733747;79;21046;-82
2021/10/15 04:04:40;;;;;;;2.90;2.60;;;;;;;8.52;75.97;96793.41;1720083;81;21114;-82
2021/10/15 04:07:06;;;;;;;3.52;2.50;;;;;;;8.53;76.09;96791.14;1708115;81;21083;-82
2021/10/15 04:09:32;;;;;;;2.33;2.05;;;;;;;8.53;75.86;96795.02;1738019;80;21102;-82
2021/10/15 04:11:57;;;;;;;4.03;2.50;;;;;;;8.58;76.00;96787.58;1726818;79;21115;-82
2021/10/15 04:14:24;;;;;;;3.05;2.40;;;;;;;8.61;75.85;96793.73;1736735;79;21079;-82
2021/10/15 04:16:50;;;;;;;3.17;2.00;;;;;;;8.64;75.70;96792.14;1736936;79;21599;-82
2021/10/15 04:19:17;;;;;;;2.15;1.87;;;;;;;8.65;75.73;96793.76;1729768;80;21006;-82
2021/10/15 04:21:43;;;;;;;3.25;2.77;;;;;;;8.65;75.82;96784.20;1708151;82;21060;-82
2021/10/15 04:24:09;;;;;;;2.83;2.00;;;;;;;8.66;75.89;96786.31;1718919;82;21374;-82
2021/10/15 04:26:35;;;;;;;2.85;2.20;;;;;;;8.68;75.81;96786.95;1733016;80;21012;-82
2021/10/15 04:29:01;;;;;;;3.40;2.10;;;;;;;8.72;75.90;96774.00;1755164;79;21028;-82
2021/10/15 04:31:27;;;;;;;3.02;2.30;;;;;;;8.75;76.08;96788.41;1706402;82;21551;-82
2021/10/15 04:33:52;;;;;;;3.45;2.62;;;;;;;8.75;75.92;96793.59;1743444;80;21180;-82
2021/10/15 04:36:18;;;;;;;4.62;2.95;;;;;;;8.72;76.14;96790.84;1739439;80;21061;-82
2021/10/15 04:38:44;;;;;;;3.50;2.65;;;;;;;8.70;76.04;96790.20;1726668;80;21081;-82
2021/10/15 04:41:10;;;;;;;3.17;2.30;;;;;;;8.67;76.08;96784.85;1736514;80;21032;-82
2021/10/15 04:43:35;;;;;;;3.58;2.00;;;;;;;8.65;75.93;96775.63;1763023;78;21165;-82
2021/10/15 04:46:01;;;;;;;2.62;2.22;;;;;;;8.65;76.05;96778.22;1790338;78;21125;-82
2021/10/15 04:48:27;;;;;;;4.03;2.58;;;;;;;8.64;75.98;96777.41;1770471;78;21463;-82
2021/10/15 04:50:53;;;;;;;2.83;2.25;;;;;;;8.62;76.01;96777.22;1786018;78;21236;-82
2021/10/15 04:53:19;;;;;;;4.15;2.77;;;;;;;8.59;76.05;96775.76;1763134;78;21130;-82
2021/10/15 04:55:45;;;;;;;3.90;2.67;;;;;;;8.55;76.20;96778.84;1796861;78;21041;-82
2021/10/15 04:58:10;;;;;;;3.58;2.17;;;;;;;8.52;76.17;96767.50;1772874;79;21100;-82
2021/10/15 05:00:36;;;;;;;3.12;2.60;;;;;;;8.52;76.13;96761.03;1758390;79;21060;-82
2021/10/15 05:03:02;;;;;;;4.92;2.98;;;;;;;8.51;75.94;96760.70;1775249;78;21497;-82
2021/10/15 05:05:29;;;;;;;3.60;2.02;;;;;;;8.51;76.13;96756.82;1779078;79;21091;-82
2021/10/15 05:07:57;;;;;;;4.47;2.87;;;;;;;8.46;76.06;96760.35;1766945;78;21054;-82
2021/10/15 05:10:24;;;;;;;3.77;3.05;;;;;;;8.41;76.02;96759.54;1757724;79;21086;-82
2021/10/15 05:12:53;;;;;;;3.60;2.47;;;;;;;8.38;76.15;96752.91;1737907;81;21047;-82
2021/10/15 05:15:20;;;;;;;2.65;2.22;;;;;;;8.38;76.16;96752.91;1775890;79;21071;-82
2021/10/15 05:17:46;;;;;;;3.50;3.12;;;;;;;8.39;76.47;96752.42;1754319;78;21907;-82
2021/10/15 05:20:16;;;;;;;4.53;3.30;;;;;;;8.39;76.33;96745.46;1773953;78;21106;-82
2021/10/15 05:22:45;;;;;;;2.58;2.37;;;;;;;8.38;76.39;96745.14;1771691;78;21233;-82
2021/10/15 05:25:11;;;;;;;3.12;2.08;;;;;;;8.38;76.45;96749.50;1745623;80;21091;-82
2021/10/15 05:27:37;;;;;;;2.85;2.27;;;;;;;8.40;76.37;96750.96;1744377;81;21105;-82
2021/10/15 05:30:05;;;;;;;4.30;2.60;;;;;;;8.46;76.32;96747.41;1761492;78;21240;-82
2021/10/15 05:32:31;;;;;;;3.42;2.50;;;;;;;8.50;76.21;96748.73;1766629;79;21134;-82
2021/10/15 05:34:57;;;;;;;1.92;1.55;;;;;;;8.52;76.25;96752.77;1744957;79;21174;-82
2021/10/15 05:37:23;;;;;;;5.05;2.30;;;;;;;8.53;76.28;96738.05;1741480;81;21466;-82
2021/10/15 05:39:49;;;;;;;2.27;1.72;;;;;;;8.53;76.23;96740.63;1723104;80;21138;-82
2021/10/15 05:42:15;;;;;;;4.25;2.70;;;;;;;8.53;76.23;96738.85;1748478;80;21142;-82
2021/10/15 05:44:41;;;;;;;2.90;2.37;;;;;;;8.55;76.18;96739.98;1745143;80;21055;-82
2021/10/15 05:47:07;;;;;;;2.55;2.27;;;;;;;8.60;76.13;96734.64;1763086;79;21037;-82
2021/10/15 05:49:35;;;;;;;3.42;2.50;;;;;;;8.63;76.08;96734.34;1763168;80;21470;-82
2021/10/15 05:52:11;;;;;;;1.62;1.22;;;;;;;8.64;76.02;96729.97;1767279;79;21444;-82
2021/10/15 05:54:43;;;;;;;2.62;2.02;;;;;;;8.66;76.11;96730.13;1749028;80;21129;-82
2021/10/15 05:59:45;;;;;;;2.40;1.65;;;;;;;8.78;76.05;96723.31;1725556;81;21108;-82
2021/10/15 06:02:10;;;;;;;2.30;1.60;;;;;;;8.87;75.71;96718.47;1737135;80;21527;-82
2021/10/15 06:14:58;;;;;;;3.35;2.60;;;;;;;9.15;74.98;96734.00;1740579;80;21115;-82
2021/10/15 06:17:26;;;;;;;2.87;1.90;;;;;;;9.16;74.81;96729.14;1746668;80;21042;-82
2021/10/15 06:22:17;;;;;;;2.75;2.05;;;;;;;9.21;74.56;96730.74;1747472;80;21086;-82
2021/10/15 06:24:43;;;;;;;2.33;2.00;;;;;;;9.25;74.62;96734.62;1732022;79;21066;-82
2021/10/15 06:27:09;;;;;;;2.50;1.90;;;;;;;9.25;74.34;96737.70;1737737;78;21109;-82
2021/10/15 06:29:35;;;;;;;3.67;2.20;;;;;;;9.26;74.23;96743.20;1740277;79;21135;-82
2021/10/15 06:32:01;;;;;;;3.00;1.87;;;;;;;9.26;74.22;96737.53;1729370;81;21166;-82
2021/10/15 06:34:27;;;;;;;2.33;1.42;;;;;;;9.29;74.14;96737.23;1725507;81;21118;-81
2021/10/15 06:36:53;;;;;;;1.85;1.40;;;;;;;9.35;74.04;96738.83;1737820;80;21119;-82
2021/10/15 06:39:19;;;;;;;3.25;1.98;;;;;;;9.36;73.99;96738.66;1723080;80;21111;-82
2021/10/15 06:41:45;;;;;;;3.90;2.22;;;;;;;9.38;73.95;96735.41;1775331;79;21618;-82
2021/10/15 06:44:11;;;;;;;9.98;5.28;;;;;;;9.42;74.10;96734.10;1766540;78;21111;-82
2021/10/15 06:46:37;;;;;;;10.30;5.00;;;;;;;9.44;73.85;96741.26;1805080;77;21027;-82
2021/10/15 06:49:03;;;;;;;5.35;2.90;;;;;;;9.45;73.65;96736.88;1798819;76;21481;-82
2021/10/15 06:51:29;;;;;;;29.75;16.42;;;;;;;9.47;73.45;96737.03;1755732;80;21036;-82
2021/10/15 06:53:55;;;;;;;19.77;9.83;;;;;;;9.51;73.41;96729.23;1770964;78;21051;-83
2021/10/15 06:56:21;;;;;;;38.02;19.32;;;;;;;9.54;73.60;96734.08;1755198;79;21417;-82
2021/10/15 06:58:47;;;;;;;18.60;9.20;;;;;;;9.57;73.22;96738.92;1786437;76;21042;-82
2021/10/15 07:01:15;;;;;;;33.92;17.92;;;;;;;9.57;72.68;96734.23;1774325;76;21063;-82
2021/10/15 07:03:40;;;;;;;27.27;14.45;;;;;;;9.56;72.60;96729.53;1793560;77;21043;-82
2021/10/15 07:06:06;;;;;;;52.23;26.07;;;;;;;9.56;72.69;96732.13;1804396;77;21432;-82
2021/10/15 07:08:32;;;;;;;9.83;5.65;;;;;;;9.60;72.92;96729.54;1775021;77;21153;-82
2021/10/15 07:10:58;;;;;;;2.10;1.70;;;;;;;9.66;72.41;96737.13;1800553;76;21169;-82
2021/10/15 07:13:24;;;;;;;2.70;2.50;;;;;;;9.68;72.88;96737.77;1772236;79;21147;-82
2021/10/15 07:15:51;;;;;;;3.15;1.55;;;;;;;9.73;72.48;96729.48;1790812;77;21098;-83
2021/10/15 07:18:16;;;;;;;2.25;1.80;;;;;;;9.75;72.74;96736.60;1790625;77;21041;-82
2021/10/15 07:20:42;;;;;;;2.27;1.85;;;;;;;9.77;72.67;96743.77;1782732;78;21096;-82
2021/10/15 07:23:14;;;;;;;2.60;1.85;;;;;;;9.77;72.75;96734.19;1800231;77;21110;-82
2021/10/15 07:25:41;;;;;;;;;;;;;;;9.81;72.67;96735.95;1801223;77;21142;-82
2021/10/15 07:28:08;;;;;;;1.77;1.60;;;;;;;9.86;72.42;96727.16;1794580;77;20112;-82
2021/10/15 07:30:33;;;;;;;1.90;1.70;;;;;;;9.88;72.10;96735.59;1779348;78;21090;-82
2021/10/15 07:32:59;;;;;;;1.82;1.50;;;;;;;9.89;72.40;96729.41;1793469;77;22508;-82
2021/10/15 07:35:25;;;;;;;2.52;1.62;;;;;;;9.93;72.39;96729.42;1831505;76;21378;-82
2021/10/15 07:37:50;;;;;;;2.08;1.75;;;;;;;9.96;72.39;96719.99;1814749;77;21054;-82
2021/10/15 07:40:17;;;;;;;2.20;1.77;;;;;;;10.00;72.20;96719.97;1787154;77;21071;-82
2021/10/15 07:42:42;;;;;;;1.65;1.32;;;;;;;10.08;72.37;96711.31;1767405;78;21039;-82
2021/10/15 07:45:08;;;;;;;3.33;1.57;;;;;;;10.12;71.93;96709.53;1770890;78;21508;-82
2021/10/15 07:47:34;;;;;;;2.02;1.37;;;;;;;10.15;71.86;96709.67;1790770;77;21063;-82
2021/10/15 07:50:00;;;;;;;1.95;1.30;;;;;;;10.15;71.90;96703.98;1782869;79;21106;-83
2021/10/15 07:52:26;;;;;;;3.12;1.40;;;;;;;10.18;71.56;96705.42;1800767;76;21140;-83
2021/10/15 07:54:52;;;;;;;1.30;0.95;;;;;;;10.23;71.69;96713.05;1785506;77;21129;-82
2021/10/15 07:57:18;;;;;;;2.20;1.32;;;;;;;10.27;71.44;96710.94;1779910;78;21058;-82
2021/10/15 07:59:44;;;;;;;2.72;1.45;;;;;;;10.32;71.74;96714.31;1796903;76;21489;-82
2021/10/15 08:02:10;;;;;;;2.37;1.40;;;;;;;10.38;72.17;96710.52;1757474;79;21129;-82
2021/10/15 08:04:36;;;;;;;2.22;1.22;;;;;;;10.49;71.77;96704.13;1801095;78;21058;-82
2021/10/15 08:07:03;;;;;;;1.85;1.10;;;;;;;10.64;71.36;96701.59;1822208;76;21009;-82
2021/10/15 08:11:55;;;;;;;3.10;1.60;;;;;;;10.90;69.72;96703.81;1793205;77;21031;-83
2021/10/15 08:14:22;;;;;;;2.02;1.30;;;;;;;11.01;70.10;96697.70;1754287;78;21081;-82
2021/10/15 08:16:49;;;;;;;3.83;1.32;;;;;;;11.14;69.60;96695.80;1796414;77;21188;-82
2021/10/15 08:19:16;;;;;;;1.50;1.20;;;;;;;11.26;69.04;96694.88;1801619;78;21121;-82
2021/10/15 08:21:43;;;;;;;2.08;1.20;;;;;;;11.39;69.44;96705.48;1780815;78;21059;-83
2021/10/15 08:24:10;;;;;;;1.80;1.35;;;;;;;11.46;67.95;96689.45;1768517;78;21015;-83
2021/10/15 08:26:37;;;;;;;1.47;1.05;;;;;;;11.54;68.10;96702.86;1792236;77;21483;-83
2021/10/15 08:29:02;;;;;;;1.70;1.20;;;;;;;11.59;68.30;96705.75;1770889;77;21059;-82
2021/10/15 08:31:28;;;;;;;1.65;1.30;;;;;;;11.53;67.87;96706.45;1814874;76;21046;-83
2021/10/15 08:33:55;;;;;;;1.95;1.30;;;;;;;11.53;68.37;96706.45;1792706;77;21038;-82
2021/10/15 08:36:23;;;;;;;1.80;1.30;;;;;;;11.56;68.87;96703.52;1791441;78;21073;-83
2021/10/15 08:38:52;;;;;;;1.98;1.55;;;;;;;11.60;68.33;96711.27;1747367;79;21118;-83
2021/10/15 08:41:23;;;;;;;2.37;1.30;;;;;;;11.67;68.67;96713.45;1740451;77;21042;-82
2021/10/15 08:43:53;;;;;;;1.65;1.20;;;;;;;11.74;68.65;96713.06;1812555;77;21697;-83
2021/10/15 08:46:21;;;;;;;2.30;1.40;;;;;;;11.77;68.47;96703.59;1820793;77;21126;-82
2021/10/15 08:48:47;;;;;;;2.37;1.27;;;;;;;11.80;67.69;96706.34;1760145;78;21227;-83
2021/10/15 08:51:13;;;;;;;1.65;1.32;;;;;;;11.80;68.08;96703.74;1803371;78;21146;-83
2021/10/15 08:56:08;;;;;;;2.25;1.40;;;;;;;11.90;67.21;96696.47;1825430;77;21105;-82
2021/10/15 08:58:45;;;;;;;1.67;1.20;;;;;;;11.95;67.63;96701.44;1806850;78;21118;-83
2021/10/15 09:01:11;;;;;;;3.35;2.70;;;;;;;12.02;67.92;96697.59;1776780;79;21128;-83
2021/10/15 09:03:37;;;;;;;1.98;1.40;;;;;;;12.08;68.04;96699.98;1763011;79;21055;-83
2021/10/15 09:06:09;;;;;;;2.37;1.47;;;;;;;12.16;68.24;96701.97;1798717;77;21117;-82
2021/10/15 09:11:33;;;;;;;1.90;1.40;;;;;;;12.26;67.50;96701.19;1770537;78;21057;-83
2021/10/15 09:14:19;;;;;;;2.25;1.40;;;;;;;12.30;67.34;96697.71;1769042;78;21417;-83
2021/10/15 09:19:30;;;;;;;5.80;3.87;;;;;;;12.39;66.80;96707.04;1776653;78;21165;-83
2021/10/15 09:22:26;;;;;;;2.47;2.10;;;;;;;12.41;65.53;96702.95;1785586;79;21663;-83
2021/10/15 09:24:59;;;;;;;2.62;1.62;;;;;;;12.39;66.44;96706.23;1793291;78;21410;-83
2021/10/15 09:27:33;;;;;;;1.52;1.30;;;;;;;12.37;65.67;96701.21;1750303;79;21070;-82
2021/10/15 09:30:04;;;;;;;1.72;1.32;;;;;;;12.36;65.97;96700.06;1734090;79;21234;-83
2021/10/15 09:32:33;;;;;;;3.02;2.12;;;;;;;12.34;66.19;96704.16;1720453;80;21135;-83
2021/10/15 09:35:01;;;;;;;5.92;4.15;;;;;;;12.33;65.35;96709.06;1703980;79;21442;-83
2021/10/15 09:37:31;;;;;;;2.85;2.00;;;;;;;12.29;65.42;96702.61;1789261;78;21047;-83
2021/10/15 09:40:12;;;;;;;6.47;4.87;;;;;;;12.24;65.38;96701.88;1785939;78;21010;-82
2021/10/15 09:42:57;;;;;;;3.80;2.98;;;;;;;12.22;65.78;96698.64;1705735;82;21246;-83
2021/10/15 09:45:30;;;;;;;3.85;2.77;;;;;;;12.22;65.89;96703.05;1766731;80;21086;-83
2021/10/15 09:47:58;;;;;;;4.05;3.08;;;;;;;12.18;65.86;96699.98;1746047;81;21489;-83
2021/10/15 09:50:27;;;;;;;3.00;2.08;;;;;;;12.12;65.49;96698.13;1757269;79;21063;-83
2021/10/15 09:53:00;;;;;;;2.92;2.30;;;;;;;12.03;65.40;96699.20;1726797;82;21194;-83
2021/10/15 09:55:39;;;;;;;3.12;2.60;;;;;;;11.99;66.12;96695.36;1789979;78;21145;-83
2021/10/15 09:58:18;;;;;;;3.22;2.58;;;;;;;12.03;66.29;96694.00;1781467;79;21069;-83
2021/10/15 10:00:44;;;;;;;2.50;2.20;;;;;;;12.05;65.66;96689.44;1790035;78;21558;-83
2021/10/15 10:03:10;;;;;;;2.20;1.72;;;;;;;12.03;66.05;96689.59;1781086;78;21048;-83
2021/10/15 10:05:37;;;;;;;4.17;2.33;;;;;;;12.08;66.34;96679.95;1779077;79;21428;-83
2021/10/15 10:10:33;;;;;;;3.35;2.75;;;;;;;12.20;66.73;96682.86;1740695;77;21100;-83
2021/10/15 10:13:00;;;;;;;3.37;2.52;;;;;;;12.26;66.41;96684.75;1779854;78;21047;-83
2021/10/15 10:15:28;;;;;;;4.42;2.60;;;;;;;12.26;66.29;96670.42;1726986;80;21152;-83
2021/10/15 10:20:32;;;;;;;3.37;2.27;;;;;;;12.35;65.41;96673.20;1784120;78;21042;-83
2021/10/15 10:23:03;;;;;;;4.70;3.00;;;;;;;12.31;66.11;96664.15;1763669;78;21147;-83
2021/10/15 10:25:29;;;;;;;3.83;3.27;;;;;;;12.32;66.12;96665.77;1771362;80;21019;-83
2021/10/15 10:27:57;;;;;;;5.20;4.50;;;;;;;12.33;65.60;96668.67;1778284;78;21107;-83
2021/10/15 10:30:42;;;;;;;2.67;2.02;;;;;;;12.28;65.74;96669.73;1781887;78;21123;-83
2021/10/15 10:33:08;;;;;;;4.08;3.02;;;;;;;12.29;65.87;96675.25;1794739;79;21039;-83
2021/10/15 10:35:35;;;;;;;4.62;3.40;;;;;;;12.26;65.09;96671.23;1799478;77;21121;-82
2021/10/15 10:40:36;;;;;;;3.58;2.37;;;;;;;12.32;65.69;96667.87;1779578;77;21448;-83
2021/10/15 10:43:03;;;;;;;2.72;2.25;;;;;;;12.29;64.96;96673.95;1764748;79;21059;-83
2021/10/15 10:45:29;;;;;;;5.15;2.92;;;;;;;12.23;64.70;96678.61;1781848;79;21490;-83
2021/10/15 10:48:04;;;;;;;3.02;2.50;;;;;;;12.18;65.32;96679.64;1783163;78;21157;-83
2021/10/15 10:50:30;;;;;;;3.12;2.42;;;;;;;12.17;65.61;96681.44;1800986;77;21064;-83
2021/10/15 10:53:05;;;;;;;4.15;2.60;;;;;;;12.17;65.40;96676.72;1800859;77;21074;-83
2021/10/15 10:55:46;;;;;;;2.92;2.22;;;;;;;12.15;65.67;96680.02;1819497;77;21104;-82
2021/10/15 11:00:47;;;;;;;4.80;3.60;;;;;;;12.03;65.47;96671.36;1789757;76;21062;-83
2021/10/15 11:03:13;;;;;;;4.85;2.70;;;;;;;11.99;65.56;96659.70;1818167;77;21032;-83
2021/10/15 11:05:41;;;;;;;2.60;2.10;;;;;;;11.97;65.59;96666.09;1777258;77;21178;-83
2021/10/15 11:08:20;;;;;;;3.72;2.67;;;;;;;11.94;65.12;96663.36;1779186;77;21044;-83
2021/10/15 11:10:46;;;;;;;3.95;2.60;;;;;;;11.94;65.52;96658.16;1801974;77;21536;-83
2021/10/15 11:13:12;;;;;;;2.15;1.92;;;;;;;11.96;65.59;96647.06;1787634;77;21047;-83
2021/10/15 11:15:38;;;;;;;4.78;2.87;;;;;;;12.01;65.74;96653.01;1772072;77;21514;-83
2021/10/15 11:18:03;;;;;;;3.10;2.47;;;;;;;12.01;66.02;96640.80;1821588;77;21086;-83
2021/10/15 11:20:35;;;;;;;3.17;2.52;;;;;;;12.03;65.78;96645.81;1780600;79;21126;-83
2021/10/15 11:23:07;;;;;;;3.45;2.10;;;;;;;11.98;65.69;96639.06;1785210;79;21131;-83
2021/10/15 11:25:39;;;;;;;4.03;3.20;;;;;;;11.97;66.30;96635.65;1739150;79;21215;-84
2021/10/15 11:28:13;;;;;;;;;;;;;;;11.95;66.15;96632.42;1800581;79;21015;-83
2021/10/15 11:30:44;;;;;;;5.37;3.65;;;;;;;11.91;66.08;96632.49;1764320;78;20113;-83
2021/10/15 11:33:19;;;;;;;5.00;2.90;;;;;;;11.86;65.78;96630.91;1776227;79;21098;-83
2021/10/15 11:35:49;;;;;;;15.13;7.70;;;;;;;11.78;66.06;96625.80;1758104;79;21823;-83
2021/10/15 11:38:20;;;;;;;4.58;3.42;;;;;;;11.76;66.53;96629.08;1790146;78;21074;-83
2021/10/15 11:40:49;;;;;;;2.65;2.00;;;;;;;11.77;66.40;96625.98;1812773;77;21132;-83
2021/10/15 11:43:24;;;;;;;2.80;2.30;;;;;;;11.77;66.29;96625.98;1777457;77;21019;-83
2021/10/15 11:46:03;;;;;;;5.05;3.40;;;;;;;11.81;66.53;96623.34;1795154;78;21086;-83
2021/10/15 11:48:41;;;;;;;2.58;1.90;;;;;;;11.84;66.39;96628.98;1740938;78;21426;-83
2021/10/15 11:51:02;;;;;;;2.52;1.92;;;;;;;11.85;66.57;96620.19;1769564;77;21367;-83
2021/10/15 11:56:04;;;;;;;3.05;2.15;;;;;;;11.86;66.32;96609.27;1735551;80;21171;-83
2021/10/15 12:01:28;;;;;;;4.60;3.67;;;;;;;11.96;66.67;96615.00;1788041;78;21015;-83
2021/10/15 12:04:11;;;;;;;3.00;2.42;;;;;;;11.95;65.98;96605.08;1794123;77;21034;-83
2021/10/15 12:06:40;;;;;;;2.70;2.10;;;;;;;11.88;66.21;96604.72;1733751;79;21198;-83
2021/10/15 12:09:16;;;;;;;5.70;4.15;;;;;;;11.86;66.54;96600.97;1768976;79;21133;-83
2021/10/15 12:12:07;;;;;;;3.65;2.90;;;;;;;11.91;66.67;96602.55;1785316;78;21120;-83
2021/10/15 12:14:34;;;;;;;2.80;2.50;;;;;;;11.98;66.21;96600.80;1775536;78;21126;-83
2021/10/15 12:17:11;;;;;;;2.62;1.90;;;;;;;12.01;66.49;96602.23;1781084;79;21173;-83
2021/10/15 12:19:41;;;;;;;3.67;2.65;;;;;;;12.03;65.78;96596.33;1766042;79;21154;-83
2021/10/15 12:22:23;;;;;;;3.17;2.50;;;;;;;11.95;66.19;96593.86;1772210;79;21066;-83